Time;durP1;ratioP1;P1;durP2;ratioP2;P2;SDS_P1;SDS_P2;PMS_P1;PMS_P2;Temp;Humidity;BMP_temperature;BMP_pressure;BME280_temperature;BME280_humidity;BME280_pressure;Samples;Min_cycle;Max_cycle;Signal;HPM_P1;HPM_P2
2023/06/06 00:01:05;;;;;;;13.48;7.55;;;;;;;;;;5018703;28;20226;-70
2023/06/06 00:03:31;;;;;;;18.85;8.77;;;;;;;;;;5020961;28;20221;-72
2023/06/06 00:05:59;;;;;;;13.43;7.72;;;;;;;;;;5015618;28;20194;-70
2023/06/06 00:08:25;;;;;;;15.35;8.02;;;;;;;;;;5028142;28;20289;-70
2023/06/06 00:10:50;;;;;;;14.38;7.88;;;;;;;;;;5024224;28;20265;-70
2023/06/06 00:13:18;;;;;;;15.38;8.63;;;;;;;;;;5018738;28;20954;-70
2023/06/06 00:15:44;;;;;;;15.93;8.55;;;;;;;;;;5019645;28;20424;-70
2023/06/06 00:18:11;;;;;;;14.57;8.27;;;;;;;;;;5028065;28;20202;-70
2023/06/06 00:20:38;;;;;;;14.38;8.02;;;;;;;;;;5027124;28;20564;-70
2023/06/06 00:23:04;;;;;;;15.77;7.68;;;;;;;;;;5030724;28;20205;-70
2023/06/06 00:25:30;;;;;;;14.30;7.75;;;;;;;;;;5023844;28;20538;-70
2023/06/06 00:27:55;;;;;;;14.02;7.78;;;;;;;;;;5026327;28;20185;-70
2023/06/06 00:30:21;;;;;;;14.10;8.00;;;;;;;;;;5044043;28;20537;-70
2023/06/06 00:32:46;;;;;;;14.85;9.43;;;;;;;;;;5023118;28;20194;-70
2023/06/06 00:35:11;;;;;;;14.10;8.55;;;;;;;;;;5025538;28;20269;-70
2023/06/06 00:37:37;;;;;;;12.05;7.82;;;;;;;;;;5028143;28;20571;-71
2023/06/06 00:40:04;;;;;;;16.38;8.55;;;;;;;;;;5027520;28;20253;-70
2023/06/06 00:42:30;;;;;;;16.15;8.38;;;;;;;;;;5026767;28;20287;-72
2023/06/06 00:44:55;;;;;;;14.98;8.13;;;;;;;;;;5028925;28;20676;-71
2023/06/06 00:47:20;;;;;;;15.25;8.52;;;;;;;;;;5030980;28;20194;-70
2023/06/06 00:49:47;;;;;;;13.25;8.57;;;;;;;;;;5032545;28;20689;-71
2023/06/06 00:52:13;;;;;;;14.30;7.63;;;;;;;;;;5032252;28;20556;-71
2023/06/06 00:54:40;;;;;;;15.82;8.00;;;;;;;;;;5030810;28;20609;-71
2023/06/06 00:57:09;;;;;;;15.00;8.07;;;;;;;;;;5025447;28;20190;-71
2023/06/06 00:59:38;;;;;;;17.13;8.50;;;;;;;;;;5025988;28;20297;-71
2023/06/06 01:02:09;;;;;;;18.17;8.60;;;;;;;;;;5026761;28;20319;-70
2023/06/06 01:04:39;;;;;;;18.08;7.75;;;;;;;;;;5028639;28;20186;-71
2023/06/06 01:07:06;;;;;;;17.30;7.70;;;;;;;;;;5032096;28;20198;-71
2023/06/06 01:09:32;;;;;;;17.63;8.63;;;;;;;;;;5029990;28;20621;-70
2023/06/06 01:12:07;;;;;;;16.05;8.52;;;;;;;;;;5029599;28;20201;-71
2023/06/06 01:15:00;;;;;;;15.05;8.48;;;;;;;;;;5026727;28;20202;-70
2023/06/06 01:17:25;;;;;;;14.40;8.77;;;;;;;;;;5023575;28;20197;-71
2023/06/06 01:19:53;;;;;;;16.33;8.10;;;;;;;;;;5030688;28;20210;-71
2023/06/06 01:22:22;;;;;;;17.08;8.35;;;;;;;;;;5031647;28;20197;-70
2023/06/06 01:24:55;;;;;;;13.35;8.75;;;;;;;;;;5030255;28;20194;-71
2023/06/06 01:27:21;;;;;;;17.58;8.48;;;;;;;;;;5030535;28;20183;-71
2023/06/06 01:29:48;;;;;;;18.35;9.60;;;;;;;;;;5026942;28;20191;-71
2023/06/06 01:32:20;;;;;;;15.25;8.60;;;;;;;;;;5028710;28;20190;-71
2023/06/06 01:34:55;;;;;;;14.32;8.40;;;;;;;;;;5031724;28;20682;-71
2023/06/06 01:37:41;;;;;;;15.90;8.23;;;;;;;;;;5032136;28;20224;-71
2023/06/06 01:40:09;;;;;;;14.95;8.50;;;;;;;;;;5027698;28;20540;-71
2023/06/06 01:42:38;;;;;;;16.35;9.18;;;;;;;;;;5026372;28;20548;-70
2023/06/06 01:45:06;;;;;;;20.02;9.07;;;;;;;;;;5036460;28;20213;-71
2023/06/06 01:47:33;;;;;;;18.35;9.70;;;;;;;;;;5027332;28;20203;-71
2023/06/06 01:49:59;;;;;;;18.70;10.43;;;;;;;;;;5031987;28;20703;-70
2023/06/06 01:52:28;;;;;;;15.52;9.38;;;;;;;;;;5036502;28;20281;-71
2023/06/06 01:54:54;;;;;;;17.70;9.25;;;;;;;;;;5029398;28;20300;-70
2023/06/06 01:57:20;;;;;;;19.00;9.02;;;;;;;;;;5037446;28;20662;-70
2023/06/06 01:59:45;;;;;;;17.70;10.05;;;;;;;;;;5029969;28;20225;-70
2023/06/06 02:02:10;;;;;;;18.83;9.45;;;;;;;;;;5030764;28;20213;-70
2023/06/06 02:04:36;;;;;;;16.92;9.98;;;;;;;;;;5027822;28;20190;-70
2023/06/06 02:07:01;;;;;;;26.42;10.35;;;;;;;;;;5029406;28;20195;-71
2023/06/06 02:09:27;;;;;;;18.02;9.38;;;;;;;;;;5027809;28;20537;-70
2023/06/06 02:11:52;;;;;;;16.55;9.77;;;;;;;;;;5027872;28;20282;-71
2023/06/06 02:14:18;;;;;;;17.70;10.15;;;;;;;;;;5037423;28;20189;-70
2023/06/06 02:16:48;;;;;;;17.02;9.02;;;;;;;;;;5025607;28;20210;-71
2023/06/06 02:19:14;;;;;;;17.20;9.75;;;;;;;;;;5037466;28;20268;-71
2023/06/06 02:21:39;;;;;;;18.83;9.90;;;;;;;;;;5040570;28;20272;-69
2023/06/06 02:24:05;;;;;;;18.05;9.48;;;;;;;;;;5039676;28;20263;-70
2023/06/06 02:26:31;;;;;;;15.00;9.27;;;;;;;;;;5039105;28;20185;-71
2023/06/06 02:28:57;;;;;;;19.02;9.93;;;;;;;;;;5020461;28;20194;-71
2023/06/06 02:31:23;;;;;;;21.00;10.32;;;;;;;;;;5023342;28;20526;-70
2023/06/06 02:33:48;;;;;;;19.25;10.10;;;;;;;;;;5037192;28;20193;-70
2023/06/06 02:36:14;;;;;;;21.13;9.98;;;;;;;;;;5021833;28;20187;-70
2023/06/06 02:38:40;;;;;;;19.08;10.25;;;;;;;;;;5030520;28;20683;-71
2023/06/06 02:41:05;;;;;;;22.08;10.68;;;;;;;;;;5031871;28;20234;-70
2023/06/06 02:43:31;;;;;;;16.88;10.50;;;;;;;;;;5029543;28;20259;-70
2023/06/06 02:45:56;;;;;;;19.65;9.80;;;;;;;;;;5027754;28;20509;-71
2023/06/06 02:48:23;;;;;;;22.02;10.88;;;;;;;;;;5031922;28;20186;-71
2023/06/06 02:50:48;;;;;;;19.23;10.60;;;;;;;;;;5040587;28;20193;-70
2023/06/06 02:53:15;;;;;;;20.23;10.82;;;;;;;;;;5034578;28;20193;-71
2023/06/06 02:55:40;;;;;;;20.17;10.95;;;;;;;;;;5025834;28;20512;-70
2023/06/06 02:58:30;;;;;;;22.77;11.02;;;;;;;;;;5016866;28;20201;-70
2023/06/06 03:00:56;;;;;;;18.77;10.00;;;;;;;;;;5020510;28;20226;-70
2023/06/06 03:03:23;;;;;;;24.55;11.13;;;;;;;;;;5024409;28;20197;-70
2023/06/06 03:05:51;;;;;;;21.33;10.45;;;;;;;;;;5027821;28;20646;-70
2023/06/06 03:08:17;;;;;;;23.92;11.10;;;;;;;;;;5028376;28;20198;-70
2023/06/06 03:10:47;;;;;;;20.17;10.57;;;;;;;;;;5038807;28;20179;-71
2023/06/06 03:13:13;;;;;;;23.35;11.13;;;;;;;;;;5028534;28;20528;-70
2023/06/06 03:15:40;;;;;;;20.67;11.43;;;;;;;;;;5027160;28;20186;-71
2023/06/06 03:18:12;;;;;;;19.05;10.75;;;;;;;;;;5029099;28;20197;-70
2023/06/06 03:20:40;;;;;;;22.40;10.90;;;;;;;;;;5026025;28;20713;-70
2023/06/06 03:23:06;;;;;;;19.42;11.43;;;;;;;;;;5028410;28;20194;-70
2023/06/06 03:25:33;;;;;;;18.95;10.88;;;;;;;;;;5035071;28;20182;-71
2023/06/06 03:27:59;;;;;;;19.08;10.52;;;;;;;;;;5025732;28;20542;-70
2023/06/06 03:30:24;;;;;;;22.88;10.88;;;;;;;;;;5048060;28;20190;-70
2023/06/06 03:32:50;;;;;;;20.70;10.80;;;;;;;;;;5037235;28;20277;-70
2023/06/06 03:35:17;;;;;;;21.33;11.13;;;;;;;;;;5028292;28;20675;-70
2023/06/06 03:37:42;;;;;;;22.10;10.32;;;;;;;;;;5027351;28;20218;-70
2023/06/06 03:40:08;;;;;;;15.90;10.23;;;;;;;;;;5027971;28;20269;-70
2023/06/06 03:42:34;;;;;;;22.67;10.65;;;;;;;;;;5023130;28;20240;-71
2023/06/06 03:44:59;;;;;;;19.98;11.02;;;;;;;;;;5022335;28;20199;-71
2023/06/06 03:47:25;;;;;;;20.73;11.05;;;;;;;;;;5017439;28;20225;-70
2023/06/06 03:49:50;;;;;;;24.35;11.02;;;;;;;;;;5026452;28;20494;-70
2023/06/06 03:52:16;;;;;;;19.05;11.85;;;;;;;;;;5027242;28;20284;-70
2023/06/06 03:54:41;;;;;;;19.80;10.23;;;;;;;;;;5028089;28;20301;-71
2023/06/06 03:57:11;;;;;;;20.90;10.25;;;;;;;;;;5026136;28;20296;-70
2023/06/06 03:59:36;;;;;;;18.75;10.60;;;;;;;;;;5023466;28;20202;-70
2023/06/06 04:02:02;;;;;;;21.98;10.13;;;;;;;;;;5037138;28;20263;-70
2023/06/06 04:04:28;;;;;;;20.50;10.90;;;;;;;;;;5025730;28;20573;-70
2023/06/06 04:06:53;;;;;;;21.20;10.85;;;;;;;;;;5042363;28;20727;-70
2023/06/06 04:09:18;;;;;;;21.17;10.02;;;;;;;;;;5032644;28;20408;-70
2023/06/06 04:11:44;;;;;;;19.50;11.02;;;;;;;;;;5027859;28;20273;-71
2023/06/06 04:14:13;;;;;;;18.80;11.38;;;;;;;;;;5031417;28;20591;-71
2023/06/06 04:16:40;;;;;;;19.70;11.00;;;;;;;;;;5029665;28;20186;-70
2023/06/06 04:19:06;;;;;;;17.60;10.52;;;;;;;;;;5033014;28;20206;-70
2023/06/06 04:21:32;;;;;;;21.05;11.60;;;;;;;;;;5025269;28;20209;-71
2023/06/06 04:23:58;;;;;;;20.40;10.27;;;;;;;;;;5030863;28;20225;-70
2023/06/06 04:26:31;;;;;;;19.63;10.95;;;;;;;;;;5019032;28;20600;-71
2023/06/06 04:29:00;;;;;;;22.73;10.10;;;;;;;;;;5025783;28;20186;-71
2023/06/06 04:31:29;;;;;;;18.55;9.85;;;;;;;;;;5036354;28;20524;-70
2023/06/06 04:33:55;;;;;;;17.27;10.38;;;;;;;;;;5024832;28;20190;-71
2023/06/06 04:36:22;;;;;;;16.55;9.88;;;;;;;;;;5030250;28;20289;-71
2023/06/06 04:38:49;;;;;;;22.73;10.13;;;;;;;;;;5024727;28;20194;-71
2023/06/06 04:41:22;;;;;;;19.58;9.52;;;;;;;;;;5029299;28;20629;-71
2023/06/06 04:43:49;;;;;;;19.00;9.82;;;;;;;;;;5023344;28;20210;-70
2023/06/06 04:46:24;;;;;;;19.63;9.65;;;;;;;;;;5020610;28;20201;-71
2023/06/06 04:48:56;;;;;;;13.20;8.65;;;;;;;;;;5025412;28;20189;-71
2023/06/06 04:51:29;;;;;;;18.02;9.55;;;;;;;;;;5027599;28;20186;-70
2023/06/06 04:54:02;;;;;;;22.05;9.25;;;;;;;;;;5020668;28;20191;-69
2023/06/06 04:56:29;;;;;;;15.85;9.25;;;;;;;;;;5023752;28;20190;-71
2023/06/06 04:59:05;;;;;;;16.17;10.02;;;;;;;;;;5024437;28;20911;-69
2023/06/06 05:01:31;;;;;;;16.42;9.55;;;;;;;;;;5023960;28;20209;-70
2023/06/06 05:03:56;;;;;;;16.92;8.75;;;;;;;;;;5022170;28;20196;-70
2023/06/06 05:06:22;;;;;;;17.80;9.75;;;;;;;;;;5020088;28;20575;-71
2023/06/06 05:08:48;;;;;;;16.92;9.43;;;;;;;;;;5021129;28;20210;-70
2023/06/06 05:11:13;;;;;;;17.17;10.00;;;;;;;;;;5019462;28;20256;-70
2023/06/06 05:13:39;;;;;;;20.45;9.90;;;;;;;;;;5024632;28;20206;-70
2023/06/06 05:16:07;;;;;;;18.50;9.18;;;;;;;;;;5022201;28;20194;-70
2023/06/06 05:18:32;;;;;;;17.58;9.20;;;;;;;;;;5015033;28;20694;-71
2023/06/06 05:21:02;;;;;;;15.73;9.32;;;;;;;;;;5021617;28;20242;-71
2023/06/06 05:23:28;;;;;;;17.60;9.55;;;;;;;;;;5021550;28;20201;-72
2023/06/06 05:25:56;;;;;;;16.60;9.30;;;;;;;;;;5035175;28;20357;-72
2023/06/06 05:28:23;;;;;;;19.23;8.77;;;;;;;;;;5023052;28;20178;-71
2023/06/06 05:30:48;;;;;;;16.88;9.82;;;;;;;;;;5026154;28;20274;-72
2023/06/06 05:33:13;;;;;;;14.73;8.68;;;;;;;;;;5022203;28;20709;-70
2023/06/06 05:35:39;;;;;;;17.98;9.55;;;;;;;;;;5051460;28;20197;-71
2023/06/06 05:38:04;;;;;;;16.30;9.05;;;;;;;;;;5030999;28;20256;-70
2023/06/06 05:40:30;;;;;;;17.58;9.20;;;;;;;;;;5021836;28;20269;-70
2023/06/06 05:42:55;;;;;;;17.88;9.02;;;;;;;;;;5024825;28;20637;-71
2023/06/06 05:45:20;;;;;;;18.10;10.93;;;;;;;;;;5027181;28;20336;-71
2023/06/06 05:47:46;;;;;;;16.63;8.95;;;;;;;;;;5031960;28;20204;-70
2023/06/06 05:50:11;;;;;;;18.35;9.90;;;;;;;;;;5027845;28;20232;-70
2023/06/06 05:52:37;;;;;;;20.73;9.10;;;;;;;;;;5022660;28;20221;-72
2023/06/06 05:55:05;;;;;;;18.65;8.90;;;;;;;;;;5021309;28;20221;-70
2023/06/06 05:57:31;;;;;;;19.35;9.65;;;;;;;;;;5017829;28;20557;-70
2023/06/06 06:00:00;;;;;;;16.02;8.48;;;;;;;;;;5015912;28;20206;-70
2023/06/06 06:02:28;;;;;;;16.42;8.68;;;;;;;;;;5019794;28;20268;-69
2023/06/06 06:04:56;;;;;;;17.13;9.13;;;;;;;;;;5023371;28;20699;-69
2023/06/06 06:07:22;;;;;;;18.45;8.50;;;;;;;;;;5027061;28;20218;-71
2023/06/06 06:09:47;;;;;;;15.85;8.40;;;;;;;;;;5027175;28;20596;-72
2023/06/06 06:12:13;;;;;;;15.75;8.25;;;;;;;;;;5025011;28;20223;-70
2023/06/06 06:14:38;;;;;;;12.82;7.53;;;;;;;;;;5023633;28;20269;-72
2023/06/06 06:17:04;;;;;;;14.32;8.23;;;;;;;;;;5023960;28;20217;-70
2023/06/06 06:19:29;;;;;;;17.25;7.75;;;;;;;;;;5028778;28;20195;-71
2023/06/06 06:21:54;;;;;;;15.70;8.07;;;;;;;;;;5024618;28;20204;-73
2023/06/06 06:24:20;;;;;;;12.65;7.28;;;;;;;;;;5031405;28;20205;-70
2023/06/06 06:26:46;;;;;;;13.95;7.63;;;;;;;;;;5035405;28;20214;-71
2023/06/06 06:29:11;;;;;;;17.20;8.10;;;;;;;;;;5026628;28;20534;-71
2023/06/06 06:31:37;;;;;;;16.58;7.72;;;;;;;;;;5027813;28;20661;-71
2023/06/06 06:34:02;;;;;;;13.68;7.30;;;;;;;;;;5033677;28;20563;-71
2023/06/06 06:36:28;;;;;;;11.93;7.03;;;;;;;;;;5017720;28;20198;-70
2023/06/06 06:38:53;;;;;;;16.80;7.65;;;;;;;;;;5017441;28;20257;-70
2023/06/06 06:41:18;;;;;;;11.52;6.97;;;;;;;;;;5023250;28;20663;-71
2023/06/06 06:43:44;;;;;;;17.30;7.43;;;;;;;;;;5023969;28;20600;-71
2023/06/06 06:46:09;;;;;;;15.55;7.60;;;;;;;;;;5028466;28;20248;-70
2023/06/06 06:48:34;;;;;;;19.23;8.02;;;;;;;;;;5043100;28;20305;-71
2023/06/06 06:51:00;;;;;;;15.93;8.13;;;;;;;;;;5026720;28;20202;-71
2023/06/06 06:53:26;;;;;;;16.13;8.25;;;;;;;;;;5020761;28;20195;-71
2023/06/06 06:55:55;;;;;;;15.98;7.10;;;;;;;;;;5023510;28;20191;-71
2023/06/06 06:58:33;;;;;;;12.93;7.40;;;;;;;;;;5022748;28;20182;-69
2023/06/06 07:01:01;;;;;;;13.18;6.50;;;;;;;;;;5024031;28;20222;-69
2023/06/06 07:03:26;;;;;;;12.23;7.18;;;;;;;;;;5012706;28;20209;-69
2023/06/06 07:05:51;;;;;;;12.10;6.95;;;;;;;;;;5028196;28;20273;-71
2023/06/06 07:08:17;;;;;;;13.43;6.90;;;;;;;;;;5032784;28;20244;-71
2023/06/06 07:10:42;;;;;;;12.20;6.75;;;;;;;;;;5019996;28;20285;-71
2023/06/06 07:13:07;;;;;;;15.57;7.45;;;;;;;;;;5034486;28;20497;-71
2023/06/06 07:15:36;;;;;;;10.18;6.80;;;;;;;;;;5020711;28;20191;-70
2023/06/06 07:18:02;;;;;;;12.90;6.70;;;;;;;;;;5020807;28;20202;-70
2023/06/06 07:20:28;;;;;;;12.27;6.43;;;;;;;;;;5019588;28;20277;-70
2023/06/06 07:22:53;;;;;;;13.63;6.95;;;;;;;;;;5009777;28;20191;-70
2023/06/06 07:25:19;;;;;;;12.23;6.05;;;;;;;;;;5023021;28;20607;-71
2023/06/06 07:27:45;;;;;;;11.52;6.30;;;;;;;;;;5028339;28;20256;-70
2023/06/06 07:30:14;;;;;;;10.63;5.82;;;;;;;;;;5038807;28;20187;-72
2023/06/06 07:32:45;;;;;;;12.63;6.78;;;;;;;;;;5034556;28;20502;-71
2023/06/06 07:35:11;;;;;;;12.20;5.80;;;;;;;;;;5044657;28;20272;-71
2023/06/06 07:37:37;;;;;;;12.60;6.05;;;;;;;;;;5023288;28;20185;-72
2023/06/06 07:40:05;;;;;;;11.25;6.75;;;;;;;;;;5014406;28;20768;-71
2023/06/06 07:42:31;;;;;;;13.23;6.28;;;;;;;;;;5013417;28;20290;-71
2023/06/06 07:44:56;;;;;;;13.07;6.20;;;;;;;;;;5010960;28;20681;-71
2023/06/06 07:47:23;;;;;;;12.88;6.72;;;;;;;;;;5022531;28;20201;-70
2023/06/06 07:49:50;;;;;;;11.13;6.22;;;;;;;;;;5025387;28;20596;-71
2023/06/06 07:52:16;;;;;;;15.25;6.60;;;;;;;;;;5011046;28;20647;-69
2023/06/06 07:54:41;;;;;;;12.45;6.80;;;;;;;;;;5026268;28;20671;-70
2023/06/06 07:57:08;;;;;;;14.98;6.40;;;;;;;;;;5027936;28;20186;-70
2023/06/06 07:59:34;;;;;;;12.07;6.65;;;;;;;;;;5018792;28;20556;-70
2023/06/06 08:02:00;;;;;;;11.57;6.45;;;;;;;;;;5024917;28;20217;-70
2023/06/06 08:04:26;;;;;;;10.40;6.22;;;;;;;;;;5036451;28;20374;-71
2023/06/06 08:06:51;;;;;;;9.70;6.38;;;;;;;;;;5026941;28;20194;-71
2023/06/06 08:09:17;;;;;;;13.50;6.90;;;;;;;;;;5039604;28;20181;-71
2023/06/06 08:11:42;;;;;;;8.68;5.80;;;;;;;;;;5032716;28;20536;-71
2023/06/06 08:14:08;;;;;;;11.98;6.70;;;;;;;;;;5026346;28;20197;-70
2023/06/06 08:16:33;;;;;;;15.85;6.07;;;;;;;;;;5030601;28;20477;-70
2023/06/06 08:18:59;;;;;;;15.48;6.10;;;;;;;;;;5024539;28;20191;-70
2023/06/06 08:21:25;;;;;;;13.40;6.38;;;;;;;;;;5020574;28;20210;-71
2023/06/06 08:23:50;;;;;;;12.88;6.00;;;;;;;;;;5029188;28;20213;-69
2023/06/06 08:26:15;;;;;;;10.90;6.30;;;;;;;;;;5013715;28;20194;-71
2023/06/06 08:28:41;;;;;;;15.18;6.75;;;;;;;;;;5029363;28;20200;-68
2023/06/06 08:31:08;;;;;;;17.02;7.90;;;;;;;;;;5025388;28;20179;-67
2023/06/06 08:33:33;;;;;;;16.02;6.78;;;;;;;;;;5029690;28;20220;-68
2023/06/06 08:35:58;;;;;;;11.90;6.20;;;;;;;;;;5019306;28;20189;-70
2023/06/06 08:38:24;;;;;;;10.82;5.47;;;;;;;;;;5026052;28;20189;-68
2023/06/06 08:40:53;;;;;;;14.25;6.47;;;;;;;;;;5034636;28;20233;-70
2023/06/06 08:43:20;;;;;;;11.82;5.80;;;;;;;;;;5025557;28;20265;-71
2023/06/06 08:45:56;;;;;;;10.02;5.80;;;;;;;;;;5025332;28;20236;-70
2023/06/06 08:48:24;;;;;;;11.13;5.85;;;;;;;;;;5033938;28;20630;-70
2023/06/06 08:50:49;;;;;;;9.13;5.43;;;;;;;;;;5038512;28;20178;-70
2023/06/06 08:53:15;;;;;;;14.10;5.95;;;;;;;;;;5027905;28;20189;-70
2023/06/06 08:55:41;;;;;;;13.55;5.78;;;;;;;;;;5018371;28;20276;-70
2023/06/06 08:58:07;;;;;;;11.25;5.90;;;;;;;;;;5030195;28;20193;-68
2023/06/06 09:00:33;;;;;;;10.40;6.10;;;;;;;;;;5027213;28;20507;-70
2023/06/06 09:02:59;;;;;;;9.10;5.75;;;;;;;;;;5035674;28;20193;-70
2023/06/06 09:05:25;;;;;;;10.55;5.57;;;;;;;;;;5027700;28;20263;-70
2023/06/06 09:07:53;;;;;;;16.80;5.90;;;;;;;;;;5039375;28;20197;-70
2023/06/06 09:10:18;;;;;;;13.05;6.10;;;;;;;;;;5043902;28;20178;-70
2023/06/06 09:12:46;;;;;;;10.30;4.90;;;;;;;;;;5042083;28;20193;-69
2023/06/06 09:15:12;;;;;;;10.88;5.90;;;;;;;;;;5046374;28;20494;-69
2023/06/06 09:17:38;;;;;;;14.02;5.72;;;;;;;;;;5037694;28;20213;-69
2023/06/06 09:20:12;;;;;;;9.57;5.53;;;;;;;;;;5033560;28;20304;-70
2023/06/06 09:22:42;;;;;;;12.68;5.47;;;;;;;;;;5032138;28;20178;-71
2023/06/06 09:25:21;;;;;;;12.10;5.75;;;;;;;;;;5041410;28;20242;-69
2023/06/06 09:27:52;;;;;;;10.95;4.93;;;;;;;;;;5033989;28;20197;-69
2023/06/06 09:30:22;;;;;;;10.82;5.50;;;;;;;;;;5023373;28;20183;-71
2023/06/06 09:32:58;;;;;;;12.30;5.60;;;;;;;;;;5024013;28;20218;-70
2023/06/06 09:35:29;;;;;;;9.80;5.03;;;;;;;;;;5028994;28;20225;-70
2023/06/06 09:37:54;;;;;;;15.40;5.47;;;;;;;;;;5024466;28;20782;-69
2023/06/06 09:40:20;;;;;;;10.57;5.40;;;;;;;;;;5024222;28;20324;-70
2023/06/06 09:42:47;;;;;;;10.45;5.50;;;;;;;;;;5020340;28;20186;-71
2023/06/06 09:45:18;;;;;;;9.82;4.70;;;;;;;;;;5031261;28;20201;-70
2023/06/06 09:47:45;;;;;;;10.65;5.30;;;;;;;;;;5026841;28;20228;-70
2023/06/06 09:50:11;;;;;;;9.82;5.05;;;;;;;;;;5011572;28;20647;-69
2023/06/06 09:52:37;;;;;;;10.48;5.45;;;;;;;;;;5019230;28;20186;-69
2023/06/06 09:55:13;;;;;;;15.82;5.75;;;;;;;;;;5023385;28;20201;-71
2023/06/06 09:57:39;;;;;;;14.82;5.47;;;;;;;;;;5030939;28;20201;-70
2023/06/06 10:00:12;;;;;;;12.02;5.68;;;;;;;;;;5015234;28;20290;-70
2023/06/06 10:02:44;;;;;;;9.00;5.60;;;;;;;;;;5024163;28;20264;-70
2023/06/06 10:05:12;;;;;;;9.68;5.30;;;;;;;;;;5018437;28;20205;-70
2023/06/06 10:07:44;;;;;;;10.55;4.90;;;;;;;;;;5037829;28;20185;-70
2023/06/06 10:10:16;;;;;;;13.93;4.80;;;;;;;;;;5033396;28;20185;-69
2023/06/06 10:12:43;;;;;;;8.85;4.68;;;;;;;;;;5030074;28;20218;-70
2023/06/06 10:15:10;;;;;;;11.90;6.05;;;;;;;;;;5027303;28;20277;-71
2023/06/06 10:17:38;;;;;;;8.63;4.57;;;;;;;;;;5030817;28;20189;-70
2023/06/06 10:20:09;;;;;;;13.35;4.82;;;;;;;;;;5038711;28;20761;-70
2023/06/06 10:22:36;;;;;;;11.88;5.10;;;;;;;;;;5025356;28;20190;-71
2023/06/06 10:25:04;;;;;;;11.68;5.00;;;;;;;;;;5043714;28;20670;-71
2023/06/06 10:27:40;;;;;;;8.00;4.95;;;;;;;;;;5030466;28;20197;-69
2023/06/06 10:30:29;;;;;;;9.88;5.07;;;;;;;;;;5029646;28;20186;-70
2023/06/06 10:33:17;;;;;;;9.13;5.38;;;;;;;;;;5024587;28;20182;-70
2023/06/06 10:35:44;;;;;;;8.15;4.57;;;;;;;;;;5025090;28;20194;-70
2023/06/06 10:38:10;;;;;;;9.27;4.55;;;;;;;;;;5022064;28;20194;-70
2023/06/06 10:40:55;;;;;;;11.40;4.55;;;;;;;;;;5028043;28;20237;-70
2023/06/06 10:43:46;;;;;;;9.35;4.45;;;;;;;;;;5015268;28;20209;-70
2023/06/06 10:46:12;;;;;;;9.98;4.50;;;;;;;;;;5035869;28;20190;-70
2023/06/06 10:48:39;;;;;;;10.32;5.40;;;;;;;;;;5025994;28;20675;-70
2023/06/06 10:51:06;;;;;;;12.20;4.90;;;;;;;;;;5025225;28;20233;-71
2023/06/06 10:53:32;;;;;;;12.73;4.75;;;;;;;;;;5016811;28;20198;-72
2023/06/06 10:55:57;;;;;;;12.27;4.90;;;;;;;;;;5019973;28;20391;-70
2023/06/06 10:58:28;;;;;;;9.15;5.13;;;;;;;;;;5023912;28;20511;-70
2023/06/06 11:01:04;;;;;;;10.13;4.80;;;;;;;;;;5025082;28;20309;-71
2023/06/06 11:03:41;;;;;;;9.43;4.72;;;;;;;;;;5028568;28;20182;-71
2023/06/06 11:06:09;;;;;;;11.10;5.15;;;;;;;;;;5009878;28;20194;-72
2023/06/06 11:08:46;;;;;;;10.90;4.93;;;;;;;;;;5004066;28;20328;-73
2023/06/06 11:11:15;;;;;;;8.60;5.40;;;;;;;;;;5009323;28;20652;-70
2023/06/06 11:14:00;;;;;;;12.43;5.45;;;;;;;;;;5008999;28;20199;-71
2023/06/06 11:16:29;;;;;;;8.93;4.88;;;;;;;;;;5021240;28;20190;-70
2023/06/06 11:19:09;;;;;;;8.30;4.32;;;;;;;;;;5016654;28;20186;-73
2023/06/06 11:21:36;;;;;;;8.02;4.72;;;;;;;;;;5029311;28;20206;-70
2023/06/06 11:24:03;;;;;;;10.02;5.40;;;;;;;;;;5033281;28;20585;-71
2023/06/06 11:26:28;;;;;;;8.73;5.00;;;;;;;;;;5037402;28;20432;-71
2023/06/06 11:28:59;;;;;;;10.13;4.85;;;;;;;;;;5020206;28;20321;-71
2023/06/06 11:31:26;;;;;;;11.32;5.15;;;;;;;;;;5030005;28;20194;-71
2023/06/06 11:33:52;;;;;;;8.52;4.95;;;;;;;;;;5021403;28;20703;-70
2023/06/06 11:36:19;;;;;;;11.43;5.10;;;;;;;;;;5020182;28;20182;-70
2023/06/06 11:38:45;;;;;;;9.65;5.13;;;;;;;;;;5029379;28;20588;-71
2023/06/06 11:41:10;;;;;;;12.75;4.90;;;;;;;;;;5038747;28;20773;-70
2023/06/06 11:43:37;;;;;;;8.57;4.72;;;;;;;;;;5026947;28;20290;-71
2023/06/06 11:46:06;;;;;;;11.55;4.70;;;;;;;;;;5028299;28;20244;-70
2023/06/06 11:48:33;;;;;;;10.95;5.32;;;;;;;;;;5029084;28;20183;-70
2023/06/06 11:51:12;;;;;;;7.63;4.95;;;;;;;;;;5017545;28;20587;-70
2023/06/06 11:53:38;;;;;;;12.07;5.40;;;;;;;;;;5019447;28;20181;-71
2023/06/06 11:56:05;;;;;;;8.70;4.65;;;;;;;;;;5027346;28;20548;-71
2023/06/06 11:58:31;;;;;;;7.18;4.63;;;;;;;;;;5028699;28;20230;-70
2023/06/06 12:01:03;;;;;;;7.82;4.75;;;;;;;;;;5008072;28;20225;-70
2023/06/06 12:03:31;;;;;;;7.55;5.05;;;;;;;;;;5018375;28;20708;-71
2023/06/06 12:06:01;;;;;;;11.40;5.18;;;;;;;;;;5018435;28;20244;-70
2023/06/06 12:08:27;;;;;;;9.88;4.63;;;;;;;;;;5017604;28;20245;-71
2023/06/06 12:10:53;;;;;;;9.70;5.20;;;;;;;;;;5030594;28;20272;-71
2023/06/06 12:13:33;;;;;;;9.50;4.40;;;;;;;;;;5024246;28;20261;-71
2023/06/06 12:15:59;;;;;;;7.88;4.82;;;;;;;;;;5026183;28;20190;-70
2023/06/06 12:18:25;;;;;;;10.00;4.90;;;;;;;;;;5020388;28;20271;-70
2023/06/06 12:20:51;;;;;;;8.65;4.70;;;;;;;;;;5022627;28;20335;-70
2023/06/06 12:23:26;;;;;;;8.60;4.45;;;;;;;;;;5036995;28;20662;-70
2023/06/06 12:25:58;;;;;;;9.13;4.60;;;;;;;;;;5036323;28;20189;-71
2023/06/06 12:28:24;;;;;;;5.28;4.10;;;;;;;;;;5022635;28;20201;-71
2023/06/06 12:30:51;;;;;;;8.50;4.28;;;;;;;;;;5024047;28;20194;-70
2023/06/06 12:33:20;;;;;;;10.00;4.13;;;;;;;;;;5032475;28;20267;-70
2023/06/06 12:35:48;;;;;;;6.20;4.20;;;;;;;;;;5028632;28;20298;-70
2023/06/06 12:38:23;;;;;;;11.05;5.07;;;;;;;;;;5027530;28;20739;-72
2023/06/06 12:40:57;;;;;;;10.32;4.40;;;;;;;;;;5025799;28;20241;-70
2023/06/06 12:43:24;;;;;;;7.82;4.45;;;;;;;;;;5027322;28;20242;-73
2023/06/06 12:45:50;;;;;;;8.07;4.63;;;;;;;;;;5028453;28;20250;-69
2023/06/06 12:48:16;;;;;;;9.02;4.78;;;;;;;;;;5021301;28;20288;-70
2023/06/06 12:50:43;;;;;;;8.63;4.75;;;;;;;;;;5028050;28;20225;-70
2023/06/06 12:53:11;;;;;;;6.50;3.90;;;;;;;;;;5022138;28;20197;-72
2023/06/06 12:55:37;;;;;;;8.10;4.07;;;;;;;;;;5023278;28;20186;-69
2023/06/06 12:58:03;;;;;;;6.97;4.40;;;;;;;;;;5026761;28;20205;-71
2023/06/06 13:00:28;;;;;;;9.52;4.88;;;;;;;;;;5032410;28;20213;-71
2023/06/06 13:02:54;;;;;;;10.32;4.85;;;;;;;;;;5023926;28;20653;-70
2023/06/06 13:05:19;;;;;;;11.85;4.78;;;;;;;;;;5025701;28;20273;-70
2023/06/06 13:07:45;;;;;;;11.10;4.60;;;;;;;;;;5019501;28;20205;-69
2023/06/06 13:10:12;;;;;;;9.07;4.65;;;;;;;;;;5018050;28;20195;-71
2023/06/06 13:12:40;;;;;;;7.45;4.30;;;;;;;;;;5024068;28;20553;-68
2023/06/06 13:15:07;;;;;;;11.05;4.47;;;;;;;;;;5020687;28;20579;-70
2023/06/06 13:17:32;;;;;;;8.23;4.25;;;;;;;;;;5025859;28;20225;-69
2023/06/06 13:19:57;;;;;;;7.45;4.38;;;;;;;;;;5021655;28;20217;-69
2023/06/06 13:22:23;;;;;;;14.35;4.88;;;;;;;;;;5018816;28;20221;-70
2023/06/06 13:24:48;;;;;;;14.23;4.93;;;;;;;;;;5021315;28;20340;-69
2023/06/06 13:27:13;;;;;;;10.30;4.88;;;;;;;;;;5019978;28;20201;-71
2023/06/06 13:29:40;;;;;;;7.53;4.25;;;;;;;;;;5022718;28;20186;-69
2023/06/06 13:32:05;;;;;;;7.10;4.00;;;;;;;;;;5022109;28;20270;-69
2023/06/06 13:34:31;;;;;;;10.02;4.90;;;;;;;;;;5020832;28;20678;-69
2023/06/06 13:36:59;;;;;;;6.13;4.35;;;;;;;;;;5024919;28;20259;-70
2023/06/06 13:39:26;;;;;;;7.55;4.00;;;;;;;;;;5025504;28;20632;-70
2023/06/06 13:41:51;;;;;;;6.55;3.97;;;;;;;;;;5021403;28;20229;-69
2023/06/06 13:44:21;;;;;;;7.15;3.95;;;;;;;;;;5026300;28;20190;-71
2023/06/06 13:46:47;;;;;;;10.23;4.38;;;;;;;;;;5019515;28;20186;-70
2023/06/06 13:49:13;;;;;;;8.38;4.30;;;;;;;;;;5022195;28;20202;-70
2023/06/06 13:51:41;;;;;;;12.63;4.18;;;;;;;;;;5011266;28;20476;-69
2023/06/06 13:54:06;;;;;;;9.80;4.43;;;;;;;;;;5026438;28;20186;-69
2023/06/06 13:56:34;;;;;;;6.80;4.60;;;;;;;;;;5041912;28;20664;-71
2023/06/06 13:59:00;;;;;;;11.18;4.95;;;;;;;;;;5034939;28;20636;-70
2023/06/06 14:01:26;;;;;;;9.77;4.38;;;;;;;;;;5025761;28;20582;-70
2023/06/06 14:03:51;;;;;;;12.88;5.53;;;;;;;;;;5027740;28;20267;-69
2023/06/06 14:06:33;;;;;;;6.35;4.00;;;;;;;;;;4839755;28;10000644;-69
2023/06/06 14:08:58;;;;;;;7.47;4.15;;;;;;;;;;5032253;28;20401;-69
2023/06/06 14:11:26;;;;;;;8.48;5.00;;;;;;;;;;5032344;28;20713;-70
2023/06/06 14:13:51;;;;;;;9.95;4.50;;;;;;;;;;5021371;28;20191;-70
2023/06/06 14:16:17;;;;;;;8.65;4.63;;;;;;;;;;5018845;28;20235;-71
2023/06/06 14:18:46;;;;;;;7.72;4.55;;;;;;;;;;5021797;28;20182;-71
2023/06/06 14:21:45;;;;;;;12.38;4.95;;;;;;;;;;5018217;28;20209;-69
2023/06/06 14:24:11;;;;;;;9.23;4.68;;;;;;;;;;5032012;28;20245;-71
2023/06/06 14:26:36;;;;;;;8.55;4.95;;;;;;;;;;5041343;28;20276;-70
2023/06/06 14:29:02;;;;;;;9.40;4.13;;;;;;;;;;5038626;28;20393;-69
2023/06/06 14:31:28;;;;;;;9.05;4.43;;;;;;;;;;5025705;28;20196;-69
2023/06/06 14:33:53;;;;;;;8.98;4.03;;;;;;;;;;5025076;28;20187;-70